Aviation Digital Data Service (ADDS)

Output produced by METARs form (2039 UTC 20 August 2019)
found at http://www.aviationweather.gov/metar/data/
 
METAR text: VTPH 201100Z 26003KT 210V330 8000 -SHRA FEW020 BKN060 27/25 Q1005 NOSIG
Conditions at: VTPH (HUA HIN , TH) observed 1100 UTC 20 August 2019
Temperature: 27.0°C (81°F)
Dewpoint: 25.0°C (77°F) [RH = 89%]
Pressure (altimeter): 29.68 inches Hg (1005.0 mb)
Winds: from the W (260 degrees) at 3 MPH (3 knots; 1.5 m/s)
Visibility: 5 miles ( 8 km)
Ceiling: 6000 feet AGL
Clouds: few clouds at 2000 feet AGL
broken clouds at 6000 feet AGL
Weather: -SHRA  (light rain showers)

METAR text: VTPH 201000Z 00000KT 8000 -RA FEW020 BKN100 29/25 Q1004 NOSIG
Conditions at: VTPH (HUA HIN , TH) observed 1000 UTC 20 August 2019
Temperature: 29.0°C (84°F)
Dewpoint: 25.0°C (77°F) [RH = 79%]
Pressure (altimeter): 29.65 inches Hg (1004.0 mb)
Winds: calm
Visibility: 5 miles ( 8 km)
Ceiling: 10000 feet AGL
Clouds: few clouds at 2000 feet AGL
broken clouds at 10000 feet AGL
Weather: -RA  (light rain)

METAR text: VTPH 200900Z VRB01KT 9999 SCT040 30/26 Q1004 NOSIG
Conditions at: VTPH (HUA HIN , TH) observed 0900 UTC 20 August 2019
Temperature: 30.0°C (86°F)
Dewpoint: 26.0°C (79°F) [RH = 79%]
Pressure (altimeter): 29.65 inches Hg (1004.0 mb)
Winds: variable direction winds at 1 MPH (1 knots; 0.5 m/s)
Visibility: 6 or more miles (10+ km)
Ceiling: at least 12,000 feet AGL
Clouds: scattered clouds at 4000 feet AGL
Weather: no significant weather observed at this time

METAR text: VTPH 200800Z 00000KT 9999 SCT040 29/25 Q1005 NOSIG
Conditions at: VTPH (HUA HIN , TH) observed 0800 UTC 20 August 2019
Temperature: 29.0°C (84°F)
Dewpoint: 25.0°C (77°F) [RH = 79%]
Pressure (altimeter): 29.68 inches Hg (1005.0 mb)
Winds: calm
Visibility: 6 or more miles (10+ km)
Ceiling: at least 12,000 feet AGL
Clouds: scattered clouds at 4000 feet AGL
Weather: no significant weather observed at this time

METAR text: VTPH 200700Z VRB04KT 8000 -RA FEW020 SCT040 27/25 Q1006 RERA NOSIG
Conditions at: VTPH (HUA HIN , TH) observed 0700 UTC 20 August 2019
Temperature: 27.0°C (81°F)
Dewpoint: 25.0°C (77°F) [RH = 89%]
Pressure (altimeter): 29.70 inches Hg (1006.0 mb)
Winds: variable direction winds at 5 MPH (4 knots; 2.1 m/s)
Visibility: 5 miles ( 8 km)
Ceiling: at least 12,000 feet AGL
Clouds: few clouds at 2000 feet AGL
scattered clouds at 4000 feet AGL
Weather: -RA  (light rain)

METAR text: VTPH 200630Z 25007KT 190V360 5000 RA FEW020 SCT030 BKN060 28/26 Q1006 BECMG TL0650 7000 -RA
Conditions at: VTPH (HUA HIN , TH) observed 0630 UTC 20 August 2019
Temperature: 28.0°C (82°F)
Dewpoint: 26.0°C (79°F) [RH = 89%]
Pressure (altimeter): 29.70 inches Hg (1006.0 mb)
Winds: from the WSW (250 degrees) at 8 MPH (7 knots; 3.6 m/s)
Visibility: 3 miles ( 5 km)
Ceiling: 6000 feet AGL
Clouds: few clouds at 2000 feet AGL
scattered clouds at 3000 feet AGL
broken clouds at 6000 feet AGL
Weather: RA  (moderate rain)

METAR text: VTPH 200600Z 12007KT 090V150 9999 FEW020 BKN050 32/26 Q1006 NOSIG
Conditions at: VTPH (HUA HIN , TH) observed 0600 UTC 20 August 2019
Temperature: 32.0°C (90°F)
Dewpoint: 26.0°C (79°F) [RH = 71%]
Pressure (altimeter): 29.70 inches Hg (1006.0 mb)
Winds: from the ESE (120 degrees) at 8 MPH (7 knots; 3.6 m/s)
Visibility: 6 or more miles (10+ km)
Ceiling: 5000 feet AGL
Clouds: few clouds at 2000 feet AGL
broken clouds at 5000 feet AGL
Weather: no significant weather observed at this time

METAR text: VTPH 200500Z 12007KT 9999 SCT040 SCT100 31/25 Q1007 NOSIG
Conditions at: VTPH (HUA HIN , TH) observed 0500 UTC 20 August 2019
Temperature: 31.0°C (88°F)
Dewpoint: 25.0°C (77°F) [RH = 71%]
Pressure (altimeter): 29.73 inches Hg (1007.0 mb)
Winds: from the ESE (120 degrees) at 8 MPH (7 knots; 3.6 m/s)
Visibility: 6 or more miles (10+ km)
Ceiling: at least 12,000 feet AGL
Clouds: scattered clouds at 4000 feet AGL
scattered clouds at 10000 feet AGL
Weather: no significant weather observed at this time

METAR text: VTPH 200400Z 05005KT 350V110 9999 FEW030 SCT100 32/24 Q1007 NOSIG
Conditions at: VTPH (HUA HIN , TH) observed 0400 UTC 20 August 2019
Temperature: 32.0°C (90°F)
Dewpoint: 24.0°C (75°F) [RH = 63%]
Pressure (altimeter): 29.73 inches Hg (1007.0 mb)
Winds: from the NE (50 degrees) at 6 MPH (5 knots; 2.6 m/s)
Visibility: 6 or more miles (10+ km)
Ceiling: at least 12,000 feet AGL
Clouds: few clouds at 3000 feet AGL
scattered clouds at 10000 feet AGL
Weather: no significant weather observed at this time

METAR text: VTPH 200300Z VRB04KT 9999 FEW030 32/24 Q1008 NOSIG
Conditions at: VTPH (HUA HIN , TH) observed 0300 UTC 20 August 2019
Temperature: 32.0°C (90°F)
Dewpoint: 24.0°C (75°F) [RH = 63%]
Pressure (altimeter): 29.76 inches Hg (1008.0 mb)
Winds: variable direction winds at 5 MPH (4 knots; 2.1 m/s)
Visibility: 6 or more miles (10+ km)
Ceiling: at least 12,000 feet AGL
Clouds: few clouds at 3000 feet AGL
Weather: no significant weather observed at this time

METAR text: VTPH 200200Z 18003KT 080V250 9999 FEW030 30/24 Q1008 NOSIG
Conditions at: VTPH (HUA HIN , TH) observed 0200 UTC 20 August 2019
Temperature: 30.0°C (86°F)
Dewpoint: 24.0°C (75°F) [RH = 70%]
Pressure (altimeter): 29.76 inches Hg (1008.0 mb)
Winds: from the S (180 degrees) at 3 MPH (3 knots; 1.5 m/s)
Visibility: 6 or more miles (10+ km)
Ceiling: at least 12,000 feet AGL
Clouds: few clouds at 3000 feet AGL
Weather: no significant weather observed at this time

METAR text: VTPH 200100Z VRB01KT 9999 FEW030 SCT100 28/23 Q1007 NOSIG
Conditions at: VTPH (HUA HIN , TH) observed 0100 UTC 20 August 2019
Temperature: 28.0°C (82°F)
Dewpoint: 23.0°C (73°F) [RH = 74%]
Pressure (altimeter): 29.73 inches Hg (1007.0 mb)
Winds: variable direction winds at 1 MPH (1 knots; 0.5 m/s)
Visibility: 6 or more miles (10+ km)
Ceiling: at least 12,000 feet AGL
Clouds: few clouds at 3000 feet AGL
scattered clouds at 10000 feet AGL
Weather: no significant weather observed at this time

METAR text: VTPH 200000Z VRB02KT 9999 FEW030 27/23 Q1006 NOSIG
Conditions at: VTPH (HUA HIN , TH) observed 0000 UTC 20 August 2019
Temperature: 27.0°C (81°F)
Dewpoint: 23.0°C (73°F) [RH = 79%]
Pressure (altimeter): 29.70 inches Hg (1006.0 mb)
Winds: variable direction winds at 2 MPH (2 knots; 1.0 m/s)
Visibility: 6 or more miles (10+ km)
Ceiling: at least 12,000 feet AGL
Clouds: few clouds at 3000 feet AGL
Weather: no significant weather observed at this time

METAR text: VTPH 192300Z 23005KT 170V260 9000 FEW030 27/23 Q1006 NOSIG
Conditions at: VTPH (HUA HIN , TH) observed 2300 UTC 19 August 2019
Temperature: 27.0°C (81°F)
Dewpoint: 23.0°C (73°F) [RH = 79%]
Pressure (altimeter): 29.70 inches Hg (1006.0 mb)
Winds: from the SW (230 degrees) at 6 MPH (5 knots; 2.6 m/s)
Visibility: 6 miles ( 9 km)
Ceiling: at least 12,000 feet AGL
Clouds: few clouds at 3000 feet AGL
Weather: no significant weather observed at this time

METAR text: VTPH 191100Z 16006KT 9999 FEW018 30/26 Q1006 NOSIG
Conditions at: VTPH (HUA HIN , TH) observed 1100 UTC 19 August 2019
Temperature: 30.0°C (86°F)
Dewpoint: 26.0°C (79°F) [RH = 79%]
Pressure (altimeter): 29.70 inches Hg (1006.0 mb)
Winds: from the SSE (160 degrees) at 7 MPH (6 knots; 3.1 m/s)
Visibility: 6 or more miles (10+ km)
Ceiling: at least 12,000 feet AGL
Clouds: few clouds at 1800 feet AGL
Weather: no significant weather observed at this time

METAR text: VTPH 191000Z 15010KT 9999 SCT032 30/26 Q1006 NOSIG
Conditions at: VTPH (HUA HIN , TH) observed 1000 UTC 19 August 2019
Temperature: 30.0°C (86°F)
Dewpoint: 26.0°C (79°F) [RH = 79%]
Pressure (altimeter): 29.70 inches Hg (1006.0 mb)
Winds: from the SSE (150 degrees) at 12 MPH (10 knots; 5.1 m/s)
Visibility: 6 or more miles (10+ km)
Ceiling: at least 12,000 feet AGL
Clouds: scattered clouds at 3200 feet AGL
Weather: no significant weather observed at this time

METAR text: VTPH 190900Z 14008KT 9999 FEW022 31/25 Q1006 NOSIG
Conditions at: VTPH (HUA HIN , TH) observed 0900 UTC 19 August 2019
Temperature: 31.0°C (88°F)
Dewpoint: 25.0°C (77°F) [RH = 71%]
Pressure (altimeter): 29.70 inches Hg (1006.0 mb)
Winds: from the SE (140 degrees) at 9 MPH (8 knots; 4.1 m/s)
Visibility: 6 or more miles (10+ km)
Ceiling: at least 12,000 feet AGL
Clouds: few clouds at 2200 feet AGL
Weather: no significant weather observed at this time

Forecast for: VTPH (HUA HIN , TH)
Text: TAF VTPH 201700Z 2018/2118 00000KT 9999 FEW028 SCT100
Forecast period: 1800 UTC 20 August 2019 to 0200 UTC 21 August 2019
Forecast type: FROM: standard forecast or significant change
Winds: calm
Visibility: 6 or more miles 10+ km)
Ceiling: at least 12,000 feet AGL
Clouds: few clouds at 2800 feet AGL
scattered clouds at 10000 feet AGL
Weather: no significant weather forecast for this period
Text: BECMG 2102/2104 14008KT FEW030
Forecast period: 0200 to 1400 UTC 21 August 2019
Forecast type: BECOMING: Conditions expected to become as follows by 0400 UTC 21 August 2019
Winds: from the SE (140 degrees) at 9 MPH (8 knots; 4.1 m/s)
Visibility: 6 or more miles 10+ km)
Ceiling: at least 12,000 feet AGL
Clouds: few clouds at 3000 feet AGL
Weather: no significant weather forecast for this period
Text: TEMPO 2108/2112 VRB12KT 6000 -TSRA FEW018CB SCT028 BKN080
Forecast period: 0800 to 1200 UTC 21 August 2019
Forecast type: TEMPORARY: The following changes expected for less than half the time period
Winds: variable direction winds at 14 MPH (12 knots; 6.2 m/s)
Visibility: 4 miles (6 km)
Ceiling: 8000 feet AGL
Clouds: few clouds at 1800 feet AGL
scattered clouds at 2800 feet AGL
broken clouds at 8000 feet AGL
Weather: -TSRA  (light rain associated with thunderstorm(s))
Text: BECMG 2114/2116 00000KT
Forecast period: 1400 to 1800 UTC 21 August 2019
Forecast type: BECOMING: Conditions expected to become as follows by 1600 UTC 21 August 2019
Winds: calm
Visibility: 6 or more miles 10+ km)
Ceiling: at least 12,000 feet AGL
Clouds: few clouds at 3000 feet AGL
Weather: no significant weather forecast for this period